Geraldton, Canada
Current Conditions -  °F | °C
As of 10:00 AM on Thursday 30 Oct 2014 (Local Time) from CYGQ Reporting Station
Light Snow Light Snow  
Wind Chill: 28°   Ceiling: 4000
Heat Index: 28°   Visibility: 2mi
Dew Point: 28°   Wind: 0mph
Humidity: 100%   Direction: NA
Pressure: 30.02"   Gusts: NA
Location:  49.72°N, 86.95°W
Report Text: CYGQ 301400Z 00000KT 2SM -SN BKN040 OVC080 M02/M02 A3002 RMKSN2SC6AS1 VIS VRB 11/2-21/2 SLP186
Loading
Personal Weather Stations






























Interactive Weather Map
Tropical Storm Tracking
New forecast layout! Learn more

10-Day Weather Forecast

Advertisements
Track Severe Weather on mobile